Keagan Mabunda

Recruteur - SuperSport United
15 Oct 2028
Dimanche
Processus

Personnalité

Adaptabilité (1) Ambition (5) Controverse (10) Loyauté (4) Pression (15) Professionnalisme (11) Sportivité (3) Tempérament (20)

Profil

Style d'entraînement Démocratique
Diplôme Continental Pro
Détermination 6
Gestion des joueurs 10
Motivation 10
Discipline 4
Satisfaction professionnelle
100%
Fatigue
0%
Rôle Recruteur
Salaire 55.9K p/s
Contrat 14.03.2030

Performance

Comportement Bon
Efficacité de l'entraînement
49%
Développement des joueurs
55%
Prévention des blessures
50%
Mise en place tactique
50%

Événements récents

A évalué un joueur maintenant
A participé à une réunion de recrutement maintenant
A participé à une réunion de recrutement maintenant
A évalué un joueur 7j
A observé un match 7j
A observé un match 7j
A évalué un joueur 7j
A évalué un joueur 7j

Suivi en cours

76
Joueur Club Statut Capacité Confiance Observé Dernière observation Dernier vote
Jonathan Farías Torpedo Kutaisi Actif 100 / 108 40% 2 11.10.2028 -
Vicente Poggi Godoy Cruz Actif 116 / 124 40% 1 11.10.2028 -
Nahuel Curcio Colón Actif 110 / 113 40% 1 11.10.2028 -
Diego Gaitán Maipú Actif 120 / 110 40% 3 09.10.2028 -
Franco Vedoya Central Norte Actif 111 / 116 40% 1 09.10.2028 -
Alejo Dramisino Atlanta Actif 123 / 123 40% 1 09.10.2028 -
Santiago Sala Güemes Actif 120 / 122 40% 2 08.10.2028 -
Juan Sebastián Herrera Deportivo La Guaira Actif 112 / 117 40% 1 08.10.2028 -
Juan Velázquez Belgrano Actif 129 / 136 40% 1 08.10.2028 -
John Córdoba Millonarios Actif 127 / 115 40% 1 07.10.2028 -
Mauro Valiente Estudiantes Actif 121 / 114 40% 1 07.10.2028 -
Matías Viguet Maipú Actif 126 / 111 40% 1 06.10.2028 -
Luca Langoni Columbus Crew Actif 139 / 135 40% 1 06.10.2028 -
Amin Boudri Los Angeles Football Club Actif 137 / 131 40% 1 05.10.2028 -
Lautaro Disanto Defensores Unidos Actif 125 / 103 40% 1 05.10.2028 -
Giorgi Arabidze Torpedo Kutaisi Actif 120 / 108 40% 1 05.10.2028 -
Agustín Morales Estudiantes Actif 110 / 114 40% 1 03.10.2028 -
Nicolás Retamar Ferro Carril Oeste Actif 129 / 112 40% 1 03.10.2028 -
Daniel Barrea Godoy Cruz Perdu 136 / 119 40% 1 28.08.2028 -
Jacques Ekomié Wrexham Actif 149 / 137 40% 1 24.07.2028 -
Malik Mothersille Stockport County Actif 130 / 117 40% 1 24.07.2028 -
Babis Kostoulas Oxford United Actif 147 / 142 40% 1 02.06.2028 -
Zian Flemming Ipswich Town Perdu 129 / 128 40% 1 02.06.2028 -
Ante Crnac Bristol Rovers Actif 125 / 121 40% 2 31.05.2028 Plus d'infos
Johnny Kenny Preston Actif 121 / 115 40% 1 31.05.2028 -
Charlie Kelman Barnsley Actif 118 / 118 40% 1 31.05.2028 -
Thierry Small Preston Actif 120 / 121 40% 1 24.01.2028 -
Aune Heggebø West Bromwich Albion Actif 120 / 132 40% 1 01.01.2028 -
Augusto Berrondo Tristán Suárez Actif 117 / 108 40% 1 31.12.2027 -
Bongani Zungu Ajax Cape Town Actif 119 / 132 40% 4 29.05.2027 -
Gaetano Castrovilli Cesena Actif 122 / 122 40% 1 29.05.2027 -
Martin Baturina Como Actif 151 / 140 40% 1 28.05.2027 -
Pontus Almqvist Parma Actif 121 / 136 40% 1 26.05.2027 -
Hannibal Burnley Actif 119 / 136 40% 2 24.05.2027 -
Stiven Shpendi Empoli Actif 120 / 119 40% 1 24.05.2027 -
Enrico Delprato Parma Actif 146 / 137 40% 1 23.05.2027 -
Ilyas Ansah Hull City Actif 132 / 127 40% 3 20.05.2027 -
Oswin Appollis Orlando Pirates Actif 116 / 127 40% 6 15.05.2027 -
Georgie Gent Barnsley Actif 118 / 110 40% 1 12.05.2027 -
Mathys Tel Tottenham Actif 135 / 146 40% 3 30.04.2027 -
Pablo García Gijón Actif 94 / 108 40% 1 28.04.2027 -
Ferland Mendy Real Madrid Actif 132 / 150 40% 1 20.04.2027 -
Bradley Cross Kaizer Chiefs Actif 113 / 105 40% 2 18.04.2027 -
Masindi Nemtajela Orlando Pirates Actif 104 / 104 40% 1 18.04.2027 -
Iker Pozo Rodina Actif 103 / 118 40% 1 16.04.2027 -
Thalente Mbatha Orlando Pirates Actif 118 / 111 40% 1 15.04.2027 -
Brooklyn Poggenpoel Maritzburg United Actif 112 / 110 40% 1 14.04.2027 -
Ramazan Gadjimuradov Chelyabinsk Actif 106 / 104 40% 1 10.04.2027 -
Yeangel Montero Naxxar Lions Actif 116 / 96 40% 1 06.04.2027 -
Patrick Maswanganyi Orlando Pirates Actif 111 / 120 40% 1 05.04.2027 -
Ronaldo Maarman University of Pretoria Actif 115 / 99 40% 1 05.04.2027 -
Pavel Maslov Chaika Actif 97 / 104 40% 1 03.04.2027 -
Mandla Kekana Ajax Cape Town Actif 117 / 116 40% 4 01.04.2027 -
Ilja Agapov Ufa Actif 99 / 124 40% 1 29.03.2027 -
David Ozoh Derby County Actif 122 / 133 40% 1 25.03.2027 -
Manu Morlanes Mallorca Actif 148 / 138 40% 1 01.01.2027 -
Álvaro Carreras Real Madrid Actif 157 / 152 40% 1 29.12.2026 -
Jay Stansfield Birmingham Actif 118 / 121 40% 1 26.12.2026 -
Thomas Carrique Andorra Actif 103 / 128 40% 1 23.12.2026 -
Denzel Jubitana Neftchi Actif 112 / 113 40% 1 22.12.2026 -
Reda Khadra Qarabag Actif 118 / 140 40% 2 17.12.2026 -
Romelle Donovan Brentford Actif 106 / 122 40% 1 08.12.2026 -
Tyrhys Dolan Espanyol Actif 127 / 148 40% 2 04.12.2026 -
Johnly Yfeko Exeter City Actif 107 / 124 40% 2 26.11.2026 -
Marcelo Allende Mamelodi Sundowns Actif 126 / 132 40% 2 25.11.2026 -
Suleiman Camara Slovan Bratislava Actif 124 / 108 40% 1 24.11.2026 -
Sandi Zajc NK Domzale Actif 99 / 108 40% 1 24.11.2026 -
Ryan Stirk Chesterfield Actif 116 / 91 40% 1 22.11.2026 -
Dean Campbell Northampton Town Actif 101 / 111 40% 2 21.11.2026 -
Petar Stanić Ludogorets Actif 140 / 135 40% 1 01.11.2026 -
Alexis Steimbach Gimnasia La Plata Actif 118 / 124 40% 1 18.10.2026 -
Jordan Williams Portsmouth Actif 113 / 115 40% 1 15.10.2026 -
Jay Matete Milton Keynes Dons Actif 114 / 99 40% 1 11.10.2026 -
Josh Benson Rotherham United Actif 118 / 113 40% 1 07.10.2026 -
Arthur Okonkwo Wrexham Actif 101 / 109 40% 1 02.08.2026 -
Balázs Tóth Blackburn Rovers Actif 116 / 113 40% 1 02.08.2026 -